Flight Track Log - Related Links

Times and Time Zones

All times are in EST time to prevent confusion due to time zone crossing. See the UAL33 flight status page for this flight to view local times or setup timezone preferences in your user account.

Time Position Orientation Groundspeed Altitude Reporting Facility
EST Latitude Longitude Course Direction KTS MPH feet Rate Location/Type
Tue 05:01:00 AM 36.0840 140.9766 84° East  Level Estimated
Tue 05:02:00 AM 36.1634 141.1249 90° East  Level Estimated
Tue 05:03:00 AM 36.2426 141.2735 86° East  Level Estimated
Tue 05:04:00 AM 36.1680 141.4256 121° Southeast  Level FlightAware Approximate
Tue 05:05:00 AM 36.2469 141.5745 90° East  Level Estimated
Tue 05:06:00 AM 36.3256 141.7237 73° East  Level Estimated
Tue 05:07:00 AM 36.4041 141.8731 90° East  Level Estimated
Tue 05:08:00 AM 36.4824 142.0229 90° East  Level Estimated
Tue 05:09:00 AM 36.5606 142.1729 83° East  Level Estimated
Tue 05:10:00 AM 36.6385 142.3233 90° East  Level Estimated
Tue 05:11:00 AM 36.5444 142.4586 131° Southeast  Level FlightAware Approximate
Tue 05:12:00 AM 36.6221 142.6091 87° East  Level Estimated
Tue 05:13:00 AM 36.5358 142.7523 127° Southeast  Level FlightAware Approximate
Tue 05:14:00 AM 36.4494 142.8951 127° Southeast  Level FlightAware Approximate
Tue 05:15:00 AM 36.5267 143.0458 77° East  Level Estimated
Tue 05:16:00 AM 36.4524 143.1989 121° Southeast  Level FlightAware Approximate
Tue 05:17:00 AM 36.5294 143.3498 78° East  Level Estimated
Tue 05:18:00 AM 36.4996 143.5247 102° East  Level FlightAware Approximate
Tue 05:19:00 AM 36.4695 143.6995 102° East  Level FlightAware Approximate
Tue 05:20:00 AM 36.4392 143.8741 102° East  Level FlightAware Approximate
Tue 05:21:00 AM 36.4087 144.0486 102° East  Level FlightAware Approximate
Tue 05:22:00 AM 36.3778 144.2230 102° East  Level FlightAware Approximate
Tue 05:23:00 AM 36.3468 144.3972 102° East  Level FlightAware Approximate
Tue 05:24:00 AM 36.4225 144.5489 73° East  Level Estimated
Tue 05:25:00 AM 36.4981 144.7009 68° East  Level Estimated
Tue 05:26:00 AM 36.4881 144.8792 94° East  Level FlightAware Approximate
Tue 05:27:00 AM 36.4778 145.0575 94° East  Level FlightAware Approximate
Tue 05:28:00 AM 36.4673 145.2357 94° East  Level FlightAware Approximate
Tue 05:29:00 AM 36.5421 145.3883 74° East  Level Estimated
Tue 05:30:00 AM 36.5631 145.5584 81° East  Level FlightAware Approximate
Tue 05:31:00 AM 36.5839 145.7286 81° East  Level FlightAware Approximate
Tue 05:32:00 AM 36.6044 145.8989 81° East  Level FlightAware Approximate
Tue 05:33:00 AM 36.6247 146.0693 82° East  Level FlightAware Approximate
Tue 05:34:00 AM 36.6447 146.2397 82° East  Level FlightAware Approximate
Tue 05:35:00 AM 36.6645 146.4103 82° East  Level FlightAware Approximate
Tue 05:36:00 AM 36.6841 146.5809 82° East  Level FlightAware Approximate
Tue 05:37:00 AM 36.7034 146.7516 82° East  Level FlightAware Approximate
Tue 05:38:00 AM 36.7225 146.9224 82° East  Level FlightAware Approximate
Tue 05:39:00 AM 36.7413 147.0933 82° East  Level FlightAware Approximate
Tue 05:40:00 AM 36.7598 147.2643 82° East  Level FlightAware Approximate
Tue 05:41:00 AM 36.7782 147.4353 82° East  Level FlightAware Approximate
Tue 05:42:00 AM 36.8478 147.5845 84° East  Level Estimated
Tue 05:43:00 AM 36.8603 147.7566 85° East  Level FlightAware Approximate
Tue 05:44:00 AM 36.8725 147.9287 85° East  Level FlightAware Approximate
Tue 05:45:00 AM 36.8845 148.1009 85° East  Level FlightAware Approximate
Tue 05:46:00 AM 36.8962 148.2731 85° East  Level FlightAware Approximate
Tue 05:47:00 AM 36.9077 148.4454 85° East  Level FlightAware Approximate
Tue 05:48:00 AM 36.9190 148.6177 85° East  Level FlightAware Approximate
Tue 05:49:00 AM 36.9300 148.7901 85° East  Level FlightAware Approximate
Tue 05:50:00 AM 36.9407 148.9626 85° East  Level FlightAware Approximate
Tue 05:51:00 AM 37.0087 149.1132 60° Northeast  Level Estimated
Tue 05:52:00 AM 37.0748 149.2653 61° Northeast  Level FlightAware Approximate
Tue 05:53:00 AM 37.1408 149.4177 61° Northeast  Level FlightAware Approximate
Tue 05:54:00 AM 37.2065 149.5703 62° Northeast  Level FlightAware Approximate
Tue 05:55:00 AM 37.2720 149.7232 62° Northeast  Level FlightAware Approximate
Tue 05:56:00 AM 37.3374 149.8764 62° Northeast  Level FlightAware Approximate
Tue 05:57:00 AM 37.4025 150.0298 62° Northeast  Level FlightAware Approximate
Tue 05:58:00 AM 37.4674 150.1835 62° Northeast  Level FlightAware Approximate
Tue 05:59:00 AM 37.5322 150.3375 62° Northeast  Level FlightAware Approximate
Tue 06:00:00 AM 37.5967 150.4917 62° Northeast  Level FlightAware Approximate
Tue 06:01:00 AM 37.6611 150.6462 62° Northeast  Level FlightAware Approximate
Tue 06:02:00 AM 37.7252 150.8010 62° Northeast  Level FlightAware Approximate
Tue 06:03:00 AM 37.7892 150.9560 62° Northeast  Level FlightAware Approximate
Tue 06:04:00 AM 37.8529 151.1113 62° Northeast  Level FlightAware Approximate
Tue 06:05:00 AM 37.9164 151.2669 63° Northeast  Level FlightAware Approximate
Tue 06:06:00 AM 37.9797 151.4227 63° Northeast  Level FlightAware Approximate
Tue 06:07:00 AM 38.0429 151.5788 63° Northeast  Level FlightAware Approximate
Tue 06:08:00 AM 38.1058 151.7352 63° Northeast  Level FlightAware Approximate
Tue 06:09:00 AM 38.1685 151.8918 63° Northeast  Level FlightAware Approximate
Tue 06:10:00 AM 38.2310 152.0487 63° Northeast  Level FlightAware Approximate
Tue 06:11:00 AM 38.2933 152.2059 63° Northeast  Level FlightAware Approximate
Tue 06:12:00 AM 38.3553 152.3634 63° Northeast  Level FlightAware Approximate
Tue 06:13:00 AM 38.4172 152.5211 63° Northeast  Level FlightAware Approximate
Tue 06:14:00 AM 38.4789 152.6791 63° Northeast  Level FlightAware Approximate
Tue 06:15:00 AM 38.5403 152.8373 64° Northeast  Level FlightAware Approximate
Tue 06:16:00 AM 38.6015 152.9959 64° Northeast  Level FlightAware Approximate
Tue 06:17:00 AM 38.6625 153.1547 64° Northeast  Level FlightAware Approximate
Tue 06:18:00 AM 38.7233 153.3137 64° Northeast  Level FlightAware Approximate
Tue 06:19:00 AM 38.7839 153.4731 64° Northeast  Level FlightAware Approximate
Tue 06:20:00 AM 38.8443 153.6327 64° Northeast  Level FlightAware Approximate
Tue 06:21:00 AM 38.9044 153.7926 64° Northeast  Level FlightAware Approximate
Tue 06:22:00 AM 38.9644 153.9527 64° Northeast  Level FlightAware Approximate
Tue 06:23:00 AM 39.0241 154.1132 64° Northeast  Level FlightAware Approximate
Tue 06:24:00 AM 39.0836 154.2739 64° Northeast  Level FlightAware Approximate
Tue 06:25:00 AM 39.1428 154.4348 65° Northeast  Level FlightAware Approximate
Tue 06:26:00 AM 39.2019 154.5961 65° Northeast  Level FlightAware Approximate
Tue 06:27:00 AM 39.2607 154.7576 65° Northeast  Level FlightAware Approximate
Tue 06:28:00 AM 39.3193 154.9194 65° Northeast  Level FlightAware Approximate
Tue 06:29:00 AM 39.3777 155.0814 65° Northeast  Level FlightAware Approximate
Tue 06:30:00 AM 39.4358 155.2437 65° Northeast  Level FlightAware Approximate
Tue 06:31:00 AM 39.4938 155.4063 65° Northeast  Level FlightAware Approximate
Tue 06:32:00 AM 39.5515 155.5692 65° Northeast  Level FlightAware Approximate
Tue 06:33:00 AM 39.6090 155.7323 65° Northeast  Level FlightAware Approximate
Tue 06:34:00 AM 39.6662 155.8957 65° Northeast  Level FlightAware Approximate
Tue 06:35:00 AM 39.7232 156.0594 66° East  Level FlightAware Approximate
Tue 06:36:00 AM 39.7800 156.2233 66° East  Level FlightAware Approximate
Tue 06:37:00 AM 39.8365 156.3876 66° East  Level FlightAware Approximate
Tue 06:38:00 AM 39.8928 156.5520 66° East  Level FlightAware Approximate
Tue 06:39:00 AM 39.9489 156.7168 66° East  Level FlightAware Approximate
Tue 06:40:00 AM 40.0048 156.8818 66° East  Level FlightAware Approximate
Tue 06:41:00 AM 40.0604 157.0471 66° East  Level FlightAware Approximate
Tue 06:42:00 AM 40.1158 157.2127 66° East  Level FlightAware Approximate
Tue 06:43:00 AM 40.1710 157.3785 66° East  Level FlightAware Approximate
Tue 06:44:00 AM 40.2259 157.5446 67° East  Level FlightAware Approximate
Tue 06:45:00 AM 40.2805 157.7110 67° East  Level FlightAware Approximate
Tue 06:46:00 AM 40.3350 157.8776 67° East  Level FlightAware Approximate
Tue 06:47:00 AM 40.3892 158.0445 67° East  Level FlightAware Approximate
Tue 06:48:00 AM 40.4431 158.2117 67° East  Level FlightAware Approximate
Tue 06:49:00 AM 40.4968 158.3792 67° East  Level FlightAware Approximate
Tue 06:50:00 AM 40.5503 158.5469 67° East  Level FlightAware Approximate
Tue 06:51:00 AM 40.6035 158.7149 67° East  Level FlightAware Approximate
Tue 06:52:00 AM 40.6565 158.8831 67° East  Level FlightAware Approximate
Tue 06:53:00 AM 40.7093 159.0516 68° East  Level FlightAware Approximate
Tue 06:54:00 AM 40.7637 159.2193 72° East  Level Estimated
Tue 06:55:00 AM 40.8092 159.3918 71° East  Level FlightAware Approximate
Tue 06:56:00 AM 40.8545 159.5644 71° East  Level FlightAware Approximate
Tue 06:57:00 AM 40.8995 159.7373 71° East  Level FlightAware Approximate
Tue 06:58:00 AM 40.9442 159.9104 71° East  Level FlightAware Approximate
Tue 06:59:00 AM 40.9887 160.0837 71° East  Level FlightAware Approximate
Tue 07:00:00 AM 41.0348 160.2648 71° East  Level FlightAware Approximate
Tue 07:01:00 AM 41.0807 160.4461 71° East  Level FlightAware Approximate
Tue 07:02:00 AM 41.1263 160.6277 72° East  Level FlightAware Approximate
Tue 07:03:00 AM 41.1715 160.8096 72° East  Level FlightAware Approximate
Tue 07:04:00 AM 41.2165 160.9916 72° East  Level FlightAware Approximate
Tue 07:05:00 AM 41.2612 161.1740 72° East  Level FlightAware Approximate
Tue 07:06:00 AM 41.3056 161.3565 72° East  Level FlightAware Approximate
Tue 07:07:00 AM 41.3498 161.5394 72° East  Level FlightAware Approximate
Tue 07:08:00 AM 41.3936 161.7224 72° East  Level FlightAware Approximate
Tue 07:09:00 AM 41.4372 161.9058 72° East  Level FlightAware Approximate
Tue 07:10:00 AM 41.4804 162.0893 72° East  Level FlightAware Approximate
Tue 07:11:00 AM 41.5234 162.2731 73° East  Level FlightAware Approximate
Tue 07:12:00 AM 41.5660 162.4572 73° East  Level FlightAware Approximate
Tue 07:13:00 AM 41.6084 162.6415 73° East  Level FlightAware Approximate
Tue 07:14:00 AM 41.6505 162.8260 73° East  Level FlightAware Approximate
Tue 07:15:00 AM 41.6923 163.0108 73° East  Level FlightAware Approximate
Tue 07:16:00 AM 41.7338 163.1958 73° East  Level FlightAware Approximate
Tue 07:17:00 AM 41.7749 163.3811 73° East  Level FlightAware Approximate
Tue 07:18:00 AM 41.8158 163.5666 73° East  Level FlightAware Approximate
Tue 07:19:00 AM 41.8564 163.7523 74° East  Level FlightAware Approximate
Tue 07:20:00 AM 41.8967 163.9383 74° East  Level FlightAware Approximate
Tue 07:21:00 AM 41.9367 164.1245 74° East  Level FlightAware Approximate
Tue 07:22:00 AM 41.9859 164.3068 75° East  Level Estimated
Tue 07:22:45 AM 42.3667 166.3167 76° East 546 628 38,000  Level Oakland Oceanic (ODAPS)
Tue 07:23:00 AM 42.0241 164.4940 75° East  Level FlightAware Approximate
Tue 07:24:00 AM 42.0619 164.6814 75° East  Level FlightAware Approximate
Tue 07:25:00 AM 42.0994 164.8690 75° East  Level FlightAware Approximate
Tue 07:26:00 AM 42.1366 165.0568 75° East  Level FlightAware Approximate
Tue 07:27:00 AM 42.1735 165.2448 75° East  Level FlightAware Approximate
Tue 07:28:00 AM 42.2102 165.4331 75° East  Level FlightAware Approximate
Tue 07:28:30 AM 42.5667 167.4167 76° East 526 605 38,000  Level Oakland Oceanic (ODAPS)
Tue 07:29:00 AM 42.5794 167.4716 76° East 546 628 38,000  Level FlightAware Transoceanic
Tue 07:30:00 AM 42.6137 167.6649 77° East 546 628 38,000  Level FlightAware Transoceanic
Tue 07:31:00 AM 42.6477 167.8584 77° East 546 628 38,000  Level FlightAware Transoceanic
Tue 07:32:00 AM 42.6814 168.0520 77° East 546 628 38,000  Level FlightAware Transoceanic
Tue 07:33:00 AM 42.7147 168.2459 77° East 546 628 38,000  Level FlightAware Transoceanic
Tue 07:34:00 AM 42.7595 168.5194 77° East 526 605 38,000  Level FlightAware Transoceanic
Tue 07:35:00 AM 42.7906 168.7038 77° East 526 605 38,000  Level FlightAware Transoceanic
Tue 07:36:00 AM 42.8214 168.8884 77° East 526 605 38,000  Level FlightAware Transoceanic
Tue 07:37:00 AM 42.8519 169.0733 77° East 526 605 38,000  Level FlightAware Transoceanic
Tue 07:38:00 AM 42.8821 169.2582 78° East 526 605 38,000  Level FlightAware Transoceanic
Tue 07:39:00 AM 42.9120 169.4434 78° East 526 605 38,000  Level FlightAware Transoceanic
Tue 07:40:00 AM 42.9417 169.6288 78° East 526 605 38,000  Level FlightAware Transoceanic
Tue 07:41:00 AM 42.9710 169.8143 78° East 526 605 38,000  Level FlightAware Transoceanic
Tue 07:41:41 AM 43.0000 170.0000 79° East 543 625 38,000  Level Oakland Oceanic (ODAPS)
Tue 07:42:00 AM 43.0000 170.0000 79° East 526 605 38,000  Level FlightAware Transoceanic
Tue 07:42:22 AM 43.0167 170.1500 79° East 542 624 38,000  Level Oakland Oceanic (ODAPS)
Tue 07:43:00 AM 43.0290 170.2003 79° East 526 605 38,000  Level FlightAware Transoceanic
Tue 07:44:00 AM 43.0577 170.4009 79° East 526 605 38,000  Level FlightAware Transoceanic
Tue 07:45:00 AM 43.0860 170.6016 79° East 526 605 38,000  Level FlightAware Transoceanic
Tue 07:46:00 AM 43.1140 170.8025 79° East 526 605 38,000  Level FlightAware Transoceanic
Tue 07:47:00 AM 43.1445 171.0246 79° East 543 625 38,000  Level FlightAware Transoceanic
Tue 07:48:00 AM 43.1855 171.3620 80° East 542 624 38,000  Level FlightAware Transoceanic
Tue 07:49:00 AM 43.2123 171.5646 80° East 542 624 38,000  Level FlightAware Transoceanic
Tue 07:50:00 AM 43.2389 171.7674 80° East 542 624 38,000  Level FlightAware Transoceanic
Tue 07:51:00 AM 43.2650 171.9704 80° East 542 624 38,000  Level FlightAware Transoceanic
Tue 07:52:00 AM 43.2909 172.1736 80° East 542 624 38,000  Level FlightAware Transoceanic
Tue 07:53:00 AM 43.3163 172.3769 80° East 542 624 38,000  Level FlightAware Transoceanic
Tue 07:54:00 AM 43.3414 172.5804 80° East 542 624 38,000  Level FlightAware Transoceanic
Tue 07:55:00 AM 43.3661 172.7840 81° East 542 624 38,000  Level FlightAware Transoceanic
Tue 07:56:00 AM 43.3905 172.9879 81° East 542 624 38,000  Level FlightAware Transoceanic
Tue 07:56:14 AM 43.3833 172.9333 81° East 543 625 38,000  Level Oakland Oceanic (ODAPS)
Tue 07:57:00 AM 43.4145 173.1919 81° East 542 624 38,000  Level FlightAware Transoceanic
Tue 07:58:00 AM 43.4381 173.3960 81° East 542 624 38,000  Level FlightAware Transoceanic
Tue 07:59:00 AM 43.4614 173.6003 81° East 542 624 38,000  Level FlightAware Transoceanic
Tue 08:00:00 AM 43.4843 173.8048 81° East 542 624 38,000  Level FlightAware Transoceanic
Tue 08:01:00 AM 43.5069 174.0094 81° East 542 624 38,000  Level FlightAware Transoceanic
Tue 08:02:00 AM 43.5237 174.1691 82° East 543 625 38,000  Level FlightAware Transoceanic
Tue 08:03:00 AM 43.5457 174.3756 82° East 543 625 38,000  Level FlightAware Transoceanic
Tue 08:04:00 AM 43.5675 174.5822 82° East 543 625 38,000  Level FlightAware Transoceanic
Tue 08:05:00 AM 43.5888 174.7890 82° East 543 625 38,000  Level FlightAware Transoceanic
Tue 08:06:00 AM 43.6098 174.9960 82° East 543 625 38,000  Level FlightAware Transoceanic
Tue 08:07:00 AM 43.6304 175.2031 82° East 543 625 38,000  Level FlightAware Transoceanic
Tue 08:08:00 AM 43.6506 175.4103 82° East 543 625 38,000  Level FlightAware Transoceanic
Tue 08:09:00 AM 43.6705 175.6177 83° East 543 625 38,000  Level FlightAware Transoceanic
Tue 08:10:00 AM 43.6899 175.8252 83° East 543 625 38,000  Level FlightAware Transoceanic
Tue 08:10:06 AM 43.6833 175.7333 83° East 538 619 38,000  Level Oakland Oceanic (ODAPS)
Tue 08:11:00 AM 43.7090 176.0328 83° East 543 625 38,000  Level FlightAware Transoceanic
Tue 08:12:00 AM 43.7278 176.2406 83° East 543 625 38,000  Level FlightAware Transoceanic
Tue 08:13:00 AM 43.7461 176.4485 83° East 543 625 38,000  Level FlightAware Transoceanic
Tue 08:14:00 AM 43.7641 176.6565 83° East 543 625 38,000  Level FlightAware Transoceanic
Tue 08:15:00 AM 43.7817 176.8647 83° East 543 625 38,000  Level FlightAware Transoceanic
Tue 08:16:00 AM 43.7900 176.9476 83° East 538 619 38,000  Level FlightAware Transoceanic
Tue 08:17:00 AM 43.8065 177.1504 84° East 538 619 38,000  Level FlightAware Transoceanic
Tue 08:18:00 AM 43.8227 177.3533 84° East 538 619 38,000  Level FlightAware Transoceanic
Tue 08:19:00 AM 43.8385 177.5563 84° East 538 619 38,000  Level FlightAware Transoceanic
Tue 08:20:00 AM 43.8539 177.7594 84° East 538 619 38,000  Level FlightAware Transoceanic
Tue 08:21:00 AM 43.8690 177.9626 84° East 538 619 38,000  Level FlightAware Transoceanic
Tue 08:22:00 AM 43.8837 178.1659 84° East 538 619 38,000  Level FlightAware Transoceanic
Tue 08:23:00 AM 43.8981 178.3694 84° East 538 619 38,000  Level FlightAware Transoceanic
Tue 08:23:58 AM 43.9167 178.6167 85° East 548 631 38,000  Level Oakland Oceanic (ODAPS)
Tue 08:24:00 AM 43.9121 178.5729 85° East 538 619 38,000  Level FlightAware Transoceanic
Tue 08:25:00 AM 43.9258 178.7765 85° East 538 619 38,000  Level FlightAware Transoceanic
Tue 08:26:00 AM 43.9390 178.9802 85° East 538 619 38,000  Level FlightAware Transoceanic
Tue 08:27:00 AM 43.9520 179.1840 85° East 538 619 38,000  Level FlightAware Transoceanic
Tue 08:28:00 AM 43.9645 179.3879 85° East 538 619 38,000  Level FlightAware Transoceanic
Tue 08:29:00 AM 43.9767 179.5918 85° East 538 619 38,000  Level FlightAware Transoceanic
Tue 08:30:00 AM 44.0000 -180.0000 79° East 548 631 38,000  Level FlightAware Transoceanic
Tue 08:30:36 AM 44.0000 180.0000 79° East 554 638 38,000  Level Oakland Oceanic (ODAPS)
Tue 08:31:00 AM 44.0290 -179.7998 79° East 548 631 38,000  Level FlightAware Transoceanic
Tue 08:32:00 AM 44.0577 -179.5994 79° East 548 631 38,000  Level FlightAware Transoceanic
Tue 08:33:00 AM 44.0860 -179.3988 79° East 548 631 38,000  Level FlightAware Transoceanic
Tue 08:34:00 AM 44.1140 -179.1980 79° East 548 631 38,000  Level FlightAware Transoceanic
Tue 08:35:00 AM 44.1417 -178.9970 79° East 548 631 38,000  Level FlightAware Transoceanic
Tue 08:36:00 AM 44.1758 -178.7444 79° East 554 638 38,000  Level FlightAware Transoceanic
Tue 08:37:00 AM 44.2038 -178.5344 80° East 554 638 38,000  Level FlightAware Transoceanic
Tue 08:37:50 AM 44.2167 -178.4667 80° East 558 642 38,000  Level Oakland Oceanic (ODAPS)
Tue 08:38:00 AM 44.2314 -178.3242 80° East 554 638 38,000  Level FlightAware Transoceanic
Tue 08:39:00 AM 44.2586 -178.1139 80° East 554 638 38,000  Level FlightAware Transoceanic
Tue 08:40:00 AM 44.2854 -177.9033 80° East 554 638 38,000  Level FlightAware Transoceanic
Tue 08:41:00 AM 44.3118 -177.6926 80° East 554 638 38,000  Level FlightAware Transoceanic
Tue 08:42:00 AM 44.3379 -177.4816 80° East 554 638 38,000  Level FlightAware Transoceanic
Tue 08:43:00 AM 44.3635 -177.2705 80° East 554 638 38,000  Level FlightAware Transoceanic
Tue 08:44:00 AM 44.3777 -177.1803 81° East 558 642 38,000  Level FlightAware Transoceanic
Tue 08:45:00 AM 44.4031 -176.9652 81° East 558 642 38,000  Level FlightAware Transoceanic
Tue 08:46:00 AM 44.4281 -176.7499 81° East 558 642 38,000  Level FlightAware Transoceanic
Tue 08:47:00 AM 44.4527 -176.5345 81° East 558 642 38,000  Level FlightAware Transoceanic
Tue 08:48:00 AM 44.4769 -176.3188 81° East 558 642 38,000  Level FlightAware Transoceanic
Tue 08:49:00 AM 44.5007 -176.1030 81° East 558 642 38,000  Level FlightAware Transoceanic
Tue 08:50:00 AM 44.5241 -175.8871 81° East 558 642 38,000  Level FlightAware Transoceanic
Tue 08:51:00 AM 44.5471 -175.6709 82° East 558 642 38,000 1,165 Level FlightAware Transoceanic
Tue 08:51:43 AM 44.5500 -175.5667 82° East 529 609 40,000  Climbing Oakland Oceanic (ODAPS)
Tue 08:52:00 AM 44.5697 -175.4546 82° East 558 642 38,000 -1,558 Descending FlightAware Transoceanic
Tue 08:53:00 AM 44.5919 -175.2381 82° East 558 642 38,000  Level FlightAware Transoceanic
Tue 08:54:00 AM 44.6137 -175.0215 82° East 558 642 38,000  Level FlightAware Transoceanic
Tue 08:55:00 AM 44.6350 -174.8046 82° East 558 642 38,000  Level FlightAware Transoceanic
Tue 08:56:00 AM 44.6559 -174.5877 82° East 558 642 38,000  Level FlightAware Transoceanic
Tue 08:57:00 AM 44.6765 -174.3705 83° East 558 642 38,000 1,000 Level FlightAware Transoceanic
Tue 08:58:00 AM 44.6733 -174.3375 82° East 529 609 40,000 1,000 Climbing FlightAware Transoceanic
Tue 08:59:00 AM 44.6926 -174.1322 83° East 529 609 40,000  Level FlightAware Transoceanic
Tue 09:00:00 AM 44.7115 -173.9267 83° East 529 609 40,000  Level FlightAware Transoceanic
Tue 09:01:00 AM 44.7300 -173.7211 83° East 529 609 40,000  Level FlightAware Transoceanic
Tue 09:02:00 AM 44.7482 -173.5153 83° East 529 609 40,000  Level FlightAware Transoceanic
Tue 09:03:00 AM 44.7660 -173.3094 83° East 529 609 40,000  Level FlightAware Transoceanic
Tue 09:04:00 AM 44.7834 -173.1034 83° East 529 609 40,000  Level FlightAware Transoceanic
Tue 09:05:00 AM 44.8004 -172.8973 83° East 529 609 40,000  Level FlightAware Transoceanic
Tue 09:05:34 AM 44.8167 -172.7333 84° East 528 608 40,000  Level Oakland Oceanic (ODAPS)
Tue 09:06:00 AM 44.8171 -172.6911 84° East 529 609 40,000  Level FlightAware Transoceanic
Tue 09:07:00 AM 44.8334 -172.4847 84° East 529 609 40,000  Level FlightAware Transoceanic
Tue 09:08:00 AM 44.8493 -172.2782 84° East 529 609 40,000  Level FlightAware Transoceanic
Tue 09:09:00 AM 44.8649 -172.0716 84° East 529 609 40,000  Level FlightAware Transoceanic
Tue 09:10:00 AM 44.8801 -171.8649 84° East 529 609 40,000  Level FlightAware Transoceanic
Tue 09:11:00 AM 44.9032 -171.5641 84° East 528 608 40,000  Level FlightAware Transoceanic
Tue 09:12:00 AM 44.9165 -171.3689 85° East 528 608 40,000  Level FlightAware Transoceanic
Tue 09:13:00 AM 44.9294 -171.1736 85° East 528 608 40,000  Level FlightAware Transoceanic
Tue 09:14:00 AM 44.9420 -170.9782 85° East 528 608 40,000  Level FlightAware Transoceanic
Tue 09:15:00 AM 44.9543 -170.7827 85° East 528 608 40,000  Level FlightAware Transoceanic
Tue 09:16:00 AM 44.9662 -170.5871 85° East 528 608 40,000  Level FlightAware Transoceanic
Tue 09:17:00 AM 44.9778 -170.3915 85° East 528 608 40,000  Level FlightAware Transoceanic
Tue 09:18:00 AM 44.9891 -170.1958 85° East 528 608 40,000  Level FlightAware Transoceanic
Tue 09:18:41 AM 45.0000 -170.0000 94° East 535 616 40,000  Level Oakland Oceanic (ODAPS)
Tue 09:19:00 AM 45.0000 -170.0000 94° East 528 608 40,000  Level FlightAware Transoceanic
Tue 09:19:35 AM 44.9833 -169.8167 95° East 535 616 40,000  Level Oakland Oceanic (ODAPS)
Tue 09:20:00 AM 44.9884 -169.7929 95° East 528 608 40,000  Level FlightAware Transoceanic
Tue 09:21:00 AM 44.9765 -169.5860 95° East 528 608 40,000  Level FlightAware Transoceanic
Tue 09:22:00 AM 44.9641 -169.3791 95° East 528 608 40,000  Level FlightAware Transoceanic
Tue 09:23:00 AM 44.9514 -169.1723 95° East 528 608 40,000  Level FlightAware Transoceanic
Tue 09:24:00 AM 44.9383 -168.9656 95° East 528 608 40,000  Level FlightAware Transoceanic
Tue 09:25:00 AM 44.9068 -168.5733 95° East 535 616 40,000  Level FlightAware Transoceanic
Tue 09:26:00 AM 44.8927 -168.3664 96° East 535 616 40,000  Level FlightAware Transoceanic
Tue 09:27:00 AM 44.8783 -168.1596 96° East 535 616 40,000  Level FlightAware Transoceanic
Tue 09:28:00 AM 44.8635 -167.9529 96° East 535 616 40,000  Level FlightAware Transoceanic
Tue 09:29:00 AM 44.8483 -167.7463 96° East 535 616 40,000  Level FlightAware Transoceanic
Tue 09:30:00 AM 44.8328 -167.5398 96° East 535 616 40,000  Level FlightAware Transoceanic
Tue 09:31:00 AM 44.8168 -167.3335 96° East 535 616 40,000  Level FlightAware Transoceanic
Tue 09:32:00 AM 44.8005 -167.1272 96° East 535 616 40,000  Level FlightAware Transoceanic
Tue 09:33:00 AM 44.7839 -166.9211 97° East 535 616 40,000  Level FlightAware Transoceanic
Tue 09:33:18 AM 44.7833 -166.9500 97° East 530 610 40,000  Level Oakland Oceanic (ODAPS)
Tue 09:34:00 AM 44.7668 -166.7151 97° East 535 616 40,000  Level FlightAware Transoceanic
Tue 09:35:00 AM 44.7494 -166.5092 97° East 535 616 40,000  Level FlightAware Transoceanic
Tue 09:36:00 AM 44.7317 -166.3035 97° East 535 616 40,000  Level FlightAware Transoceanic
Tue 09:37:00 AM 44.7135 -166.0978 97° East 535 616 40,000  Level FlightAware Transoceanic
Tue 09:38:00 AM 44.6950 -165.8923 97° East 535 616 40,000  Level FlightAware Transoceanic
Tue 09:39:00 AM 44.6759 -165.7107 97° East 530 610 40,000  Level FlightAware Transoceanic
Tue 09:40:00 AM 44.6567 -165.5046 98° East 530 610 40,000  Level FlightAware Transoceanic
Tue 09:41:00 AM 44.6371 -165.2987 98° East 530 610 40,000  Level FlightAware Transoceanic
Tue 09:42:00 AM 44.6172 -165.0929 98° East 530 610 40,000  Level FlightAware Transoceanic
Tue 09:43:00 AM 44.5969 -164.8872 98° East 530 610 40,000  Level FlightAware Transoceanic
Tue 09:44:00 AM 44.5762 -164.6817 98° East 530 610 40,000  Level FlightAware Transoceanic
Tue 09:45:00 AM 44.5551 -164.4763 98° East 530 610 40,000  Level FlightAware Transoceanic
Tue 09:46:00 AM 44.5337 -164.2711 98° East 530 610 40,000  Level FlightAware Transoceanic
Tue 09:47:00 AM 44.5119 -164.0660 99° East 530 610 40,000  Level FlightAware Transoceanic
Tue 09:47:10 AM 44.5167 -164.1333 98° East 526 605 40,000  Level Oakland Oceanic (ODAPS)
Tue 09:48:00 AM 44.4898 -163.8611 99° East 530 610 40,000  Level FlightAware Transoceanic
Tue 09:49:00 AM 44.4673 -163.6563 99° East 530 610 40,000  Level FlightAware Transoceanic
Tue 09:50:00 AM 44.4444 -163.4517 99° East 530 610 40,000  Level FlightAware Transoceanic
Tue 09:51:00 AM 44.4211 -163.2473 99° East 530 610 40,000  Level FlightAware Transoceanic
Tue 09:52:00 AM 44.3975 -163.0430 99° East 530 610 40,000  Level FlightAware Transoceanic
Tue 09:53:00 AM 44.3843 -162.9451 99° East 526 605 40,000  Level FlightAware Transoceanic
Tue 09:54:00 AM 44.3610 -162.7476 99° East 526 605 40,000  Level FlightAware Transoceanic
Tue 09:55:00 AM 44.3374 -162.5502 100° East 526 605 40,000  Level FlightAware Transoceanic
Tue 09:56:00 AM 44.3135 -162.3531 100° East 526 605 40,000  Level FlightAware Transoceanic
Tue 09:57:00 AM 44.2892 -162.1560 100° East 526 605 40,000  Level FlightAware Transoceanic
Tue 09:58:00 AM 44.2646 -161.9592 100° East 526 605 40,000  Level FlightAware Transoceanic
Tue 09:59:00 AM 44.2397 -161.7625 100° East 526 605 40,000  Level FlightAware Transoceanic
Tue 10:00:00 AM 44.2144 -161.5659 100° East 526 605 40,000  Level FlightAware Transoceanic
Tue 10:01:00 AM 44.1888 -161.3696 100° East 526 605 40,000  Level FlightAware Transoceanic
Tue 10:01:02 AM 44.1833 -161.3500 100° East 518 596 40,000  Level Oakland Oceanic (ODAPS)
Tue 10:02:00 AM 44.1628 -161.1734 101° East 526 605 40,000  Level FlightAware Transoceanic
Tue 10:03:00 AM 44.1365 -160.9774 101° East 526 605 40,000  Level FlightAware Transoceanic
Tue 10:04:00 AM 44.1099 -160.7816 101° East 526 605 40,000  Level FlightAware Transoceanic
Tue 10:05:00 AM 44.0829 -160.5859 101° East 526 605 40,000  Level FlightAware Transoceanic
Tue 10:06:00 AM 44.0556 -160.3904 101° East 526 605 40,000  Level FlightAware Transoceanic
Tue 10:07:00 AM 44.0272 -160.1923 101° East 518 596 40,000  Level FlightAware Transoceanic
Tue 10:08:00 AM 44.0000 -160.0000 87° East 518 596 40,000  Level FlightAware Transoceanic
Tue 10:08:02 AM 44.0000 -160.0000 87° East 519 597 40,000  Level Oakland Oceanic (ODAPS)
Tue 10:09:00 AM 44.0085 -159.8005 87° East 518 596 40,000  Level FlightAware Transoceanic
Tue 10:10:00 AM 44.0168 -159.6009 87° East 518 596 40,000  Level FlightAware Transoceanic
Tue 10:11:00 AM 44.0246 -159.4012 87° East 518 596 40,000  Level FlightAware Transoceanic
Tue 10:12:00 AM 44.0321 -159.2015 87° East 518 596 40,000  Level FlightAware Transoceanic
Tue 10:13:00 AM 44.0393 -159.0018 87° East 518 596 40,000  Level FlightAware Transoceanic
Tue 10:14:00 AM 44.0461 -158.8020 87° East 519 597 40,000  Level FlightAware Transoceanic
Tue 10:14:54 AM 44.0500 -158.6500 87° East 513 590 40,000  Level Oakland Oceanic (ODAPS)
Tue 10:15:00 AM 44.0525 -158.6021 87° East 519 597 40,000  Level FlightAware Transoceanic
Tue 10:16:00 AM 44.0587 -158.4023 88° East 519 597 40,000  Level FlightAware Transoceanic
Tue 10:17:00 AM 44.0644 -158.2023 88° East 519 597 40,000  Level FlightAware Transoceanic
Tue 10:18:00 AM 44.0698 -158.0024 88° East 519 597 40,000  Level FlightAware Transoceanic
Tue 10:19:00 AM 44.0749 -157.8024 88° East 519 597 40,000  Level FlightAware Transoceanic
Tue 10:20:00 AM 44.0796 -157.6023 88° East 519 597 40,000  Level FlightAware Transoceanic
Tue 10:21:00 AM 44.0816 -157.4710 88° East 513 590 40,000  Level FlightAware Transoceanic
Tue 10:22:00 AM 44.0857 -157.2743 88° East 513 590 40,000  Level FlightAware Transoceanic
Tue 10:23:00 AM 44.0895 -157.0777 89° East 513 590 40,000  Level FlightAware Transoceanic
Tue 10:24:00 AM 44.0929 -156.8810 89° East 513 590 40,000  Level FlightAware Transoceanic
Tue 10:25:00 AM 44.0960 -156.6843 89° East 513 590 40,000  Level FlightAware Transoceanic
Tue 10:26:00 AM 44.0987 -156.4876 89° East 513 590 40,000  Level FlightAware Transoceanic
Tue 10:27:00 AM 44.1012 -156.2909 89° East 513 590 40,000  Level FlightAware Transoceanic
Tue 10:28:00 AM 44.1032 -156.0941 89° East 513 590 40,000  Level FlightAware Transoceanic
Tue 10:28:46 AM 44.1000 -155.9167 89° East 510 587 40,000  Level Oakland Oceanic (ODAPS)
Tue 10:29:00 AM 44.1049 -155.8974 89° East 513 590 40,000  Level FlightAware Transoceanic
Tue 10:30:00 AM 44.1063 -155.7006 90° East 513 590 40,000  Level FlightAware Transoceanic
Tue 10:31:00 AM 44.1074 -155.5039 90° East 513 590 40,000  Level FlightAware Transoceanic
Tue 10:32:00 AM 44.1081 -155.3071 90° East 513 590 40,000  Level FlightAware Transoceanic
Tue 10:33:00 AM 44.1085 -155.1103 90° East 513 590 40,000  Level FlightAware Transoceanic
Tue 10:34:00 AM 44.1046 -154.9296 90° East 510 587 40,000  Level FlightAware Transoceanic
Tue 10:35:00 AM 44.1045 -154.7322 90° East 510 587 40,000  Level FlightAware Transoceanic
Tue 10:36:00 AM 44.1040 -154.5348 90° East 510 587 40,000  Level FlightAware Transoceanic
Tue 10:37:00 AM 44.1032 -154.3374 90° East 510 587 40,000  Level FlightAware Transoceanic
Tue 10:38:00 AM 44.1021 -154.1400 91° East 510 587 40,000  Level FlightAware Transoceanic
Tue 10:39:00 AM 44.1006 -153.9426 91° East 510 587 40,000  Level FlightAware Transoceanic
Tue 10:40:00 AM 44.0988 -153.7452 91° East 510 587 40,000  Level FlightAware Transoceanic
Tue 10:41:00 AM 44.0967 -153.5478 91° East 510 587 40,000  Level FlightAware Transoceanic
Tue 10:42:00 AM 44.0942 -153.3505 91° East 510 587 40,000  Level FlightAware Transoceanic
Tue 10:42:46 AM 44.1000 -153.1833 91° East 510 587 40,000  Level Oakland Oceanic (ODAPS)
Tue 10:43:00 AM 44.0914 -153.1532 91° East 510 587 40,000  Level FlightAware Transoceanic
Tue 10:44:00 AM 44.0882 -152.9558 91° East 510 587 40,000  Level FlightAware Transoceanic
Tue 10:45:00 AM 44.0847 -152.7585 91° East 510 587 40,000  Level FlightAware Transoceanic
Tue 10:46:00 AM 44.0808 -152.5613 92° East 510 587 40,000  Level FlightAware Transoceanic
Tue 10:47:00 AM 44.0766 -152.3640 92° East 510 587 40,000  Level FlightAware Transoceanic
Tue 10:48:00 AM 44.0748 -152.0586 92° East 510 587 40,000  Level FlightAware Transoceanic
Tue 10:49:00 AM 44.0695 -151.8713 92° East 510 587 40,000  Level FlightAware Transoceanic
Tue 10:50:00 AM 44.0639 -151.6840 92° East 510 587 40,000  Level FlightAware Transoceanic
Tue 10:51:00 AM 44.0581 -151.4967 93° East 510 587 40,000  Level FlightAware Transoceanic
Tue 10:52:00 AM 44.0519 -151.3094 93° East 510 587 40,000  Level FlightAware Transoceanic
Tue 10:53:00 AM 44.0454 -151.1223 93° East 510 587 40,000  Level FlightAware Transoceanic
Tue 10:54:00 AM 44.0386 -150.9351 93° East 510 587 40,000  Level FlightAware Transoceanic
Tue 10:55:00 AM 44.0315 -150.7480 93° East 510 587 40,000  Level FlightAware Transoceanic
Tue 10:56:00 AM 44.0241 -150.5609 93° East 510 587 40,000  Level FlightAware Transoceanic
Tue 10:56:30 AM 44.0167 -150.4833 93° East 508 585 40,000  Level Oakland Oceanic (ODAPS)
Tue 10:57:00 AM 44.0163 -150.3739 93° East 510 587 40,000  Level FlightAware Transoceanic
Tue 10:58:00 AM 44.0083 -150.1869 93° East 510 587 40,000  Level FlightAware Transoceanic
Tue 10:59:00 AM 44.0000 -150.0000 94° East 510 587 40,000  Level FlightAware Transoceanic
Tue 10:59:00 AM 44.0000 -150.0000 94° East 509 586 40,000  Level Oakland Oceanic (ODAPS)
Tue 11:00:00 AM 43.9889 -149.8011 95° East 510 587 40,000  Level FlightAware Transoceanic
Tue 11:01:00 AM 43.9774 -149.6024 95° East 510 587 40,000  Level FlightAware Transoceanic
Tue 11:02:00 AM 43.9655 -149.4037 95° East 508 585 40,000  Level FlightAware Transoceanic
Tue 11:03:00 AM 43.9534 -149.2051 95° East 508 585 40,000  Level FlightAware Transoceanic
Tue 11:04:00 AM 43.9409 -149.0065 95° East 508 585 40,000  Level FlightAware Transoceanic
Tue 11:05:00 AM 43.9295 -148.8310 95° East 509 586 40,000  Level FlightAware Transoceanic
Tue 11:06:00 AM 43.9166 -148.6364 95° East 509 586 40,000  Level FlightAware Transoceanic
Tue 11:07:00 AM 43.9034 -148.4420 95° East 509 586 40,000  Level FlightAware Transoceanic
Tue 11:08:00 AM 43.8898 -148.2476 96° East 509 586 40,000  Level FlightAware Transoceanic
Tue 11:09:00 AM 43.8759 -148.0533 96° East 509 586 40,000  Level FlightAware Transoceanic
Tue 11:10:00 AM 43.8617 -147.8591 96° East 509 586 40,000  Level FlightAware Transoceanic
Tue 11:10:22 AM 43.8500 -147.7833 96° East 512 589 40,000  Level Oakland Oceanic (ODAPS)
Tue 11:11:00 AM 43.8471 -147.6650 96° East 509 586 40,000  Level FlightAware Transoceanic
Tue 11:12:00 AM 43.8322 -147.4710 96° East 509 586 40,000  Level FlightAware Transoceanic
Tue 11:13:00 AM 43.8170 -147.2771 96° East 509 586 40,000  Level FlightAware Transoceanic
Tue 11:14:00 AM 43.8015 -147.0833 96° East 509 586 40,000  Level FlightAware Transoceanic
Tue 11:15:00 AM 43.7856 -146.8896 97° East 509 586 40,000  Level FlightAware Transoceanic
Tue 11:16:00 AM 43.7564 -146.6028 97° East 512 589 40,000  Level FlightAware Transoceanic
Tue 11:17:00 AM 43.7396 -146.4064 97° East 512 589 40,000  Level FlightAware Transoceanic
Tue 11:18:00 AM 43.7225 -146.2102 97° East 512 589 40,000  Level FlightAware Transoceanic
Tue 11:19:00 AM 43.7050 -146.0140 97° East 512 589 40,000  Level FlightAware Transoceanic
Tue 11:20:00 AM 43.6873 -145.8180 97° East 512 589 40,000  Level FlightAware Transoceanic
Tue 11:21:00 AM 43.6691 -145.6220 97° East 512 589 40,000  Level FlightAware Transoceanic
Tue 11:22:00 AM 43.6507 -145.4262 97° East 512 589 40,000  Level FlightAware Transoceanic
Tue 11:23:00 AM 43.6319 -145.2305 98° East 512 589 40,000  Level FlightAware Transoceanic
Tue 11:24:00 AM 43.6128 -145.0350 98° East 512 589 40,000 811 Level FlightAware Transoceanic
Tue 11:24:14 AM 43.6167 -145.1167 98° East 508 585 41,000  Climbing Oakland Oceanic (ODAPS)
Tue 11:25:00 AM 43.5933 -144.8395 98° East 512 589 40,000 -566 Descending FlightAware Transoceanic
Tue 11:26:00 AM 43.5735 -144.6442 98° East 512 589 40,000  Level FlightAware Transoceanic
Tue 11:27:00 AM 43.5534 -144.4491 98° East 512 589 40,000  Level FlightAware Transoceanic
Tue 11:28:00 AM 43.5329 -144.2540 98° East 512 589 40,000  Level FlightAware Transoceanic
Tue 11:29:00 AM 43.5121 -144.0591 98° East 512 589 40,000 500 Level FlightAware Transoceanic
Tue 11:30:00 AM 43.4994 -143.9709 98° East 508 585 41,000 500 Climbing FlightAware Transoceanic
Tue 11:31:00 AM 43.4788 -143.7804 99° East 508 585 41,000  Level FlightAware Transoceanic
Tue 11:32:00 AM 43.4578 -143.5900 99° East 508 585 41,000  Level FlightAware Transoceanic
Tue 11:33:00 AM 43.4365 -143.3998 99° East 508 585 41,000  Level FlightAware Transoceanic
Tue 11:34:00 AM 43.4149 -143.2097 99° East 508 585 41,000  Level FlightAware Transoceanic
Tue 11:35:00 AM 43.3930 -143.0197 99° East 508 585 41,000  Level FlightAware Transoceanic
Tue 11:36:00 AM 43.3708 -142.8298 99° East 508 585 41,000  Level FlightAware Transoceanic
Tue 11:37:00 AM 43.3482 -142.6401 99° East 508 585 41,000  Level FlightAware Transoceanic
Tue 11:38:00 AM 43.3254 -142.4506 99° East 508 585 41,000  Level FlightAware Transoceanic
Tue 11:38:06 AM 43.3333 -142.4667 100° East 507 583 41,000  Level Oakland Oceanic (ODAPS)
Tue 11:39:00 AM 43.3022 -142.2612 100° East 508 585 41,000  Level FlightAware Transoceanic
Tue 11:40:00 AM 43.2787 -142.0719 100° East 508 585 41,000  Level FlightAware Transoceanic
Tue 11:41:00 AM 43.2550 -141.8828 100° East 508 585 41,000  Level FlightAware Transoceanic
Tue 11:42:00 AM 43.2309 -141.6938 100° East 508 585 41,000  Level FlightAware Transoceanic
Tue 11:43:00 AM 43.2064 -141.5050 100° East 508 585 41,000  Level FlightAware Transoceanic
Tue 11:44:00 AM 43.1861 -141.3249 100° East 507 583 41,000  Level FlightAware Transoceanic
Tue 11:45:00 AM 43.1604 -141.1351 101° East 507 583 41,000  Level FlightAware Transoceanic
Tue 11:46:00 AM 43.1345 -140.9455 101° East 507 583 41,000  Level FlightAware Transoceanic
Tue 11:47:00 AM 43.1082 -140.7561 101° East 507 583 41,000  Level FlightAware Transoceanic
Tue 11:48:00 AM 43.0816 -140.5668 101° East 507 583 41,000  Level FlightAware Transoceanic
Tue 11:49:00 AM 43.0547 -140.3777 101° East 507 583 41,000  Level FlightAware Transoceanic
Tue 11:50:00 AM 43.0275 -140.1888 101° East 507 583 41,000  Level FlightAware Transoceanic
Tue 11:51:00 AM 43.0000 -140.0000 108° East 507 583 41,000  Level FlightAware Transoceanic
Tue 11:51:27 AM 43.0000 -140.0000 108° East 505 581 41,000  Level Oakland Oceanic (ODAPS)
Tue 11:51:58 AM 42.9833 -139.9000 109° East 505 581 41,000  Level Oakland Oceanic (ODAPS)
Tue 11:52:00 AM 42.9551 -139.8167 109° East 507 583 41,000  Level FlightAware Transoceanic
Tue 11:53:00 AM 42.9099 -139.6337 109° East 507 583 41,000  Level FlightAware Transoceanic
Tue 11:54:00 AM 42.8644 -139.4509 109° East 507 583 41,000  Level FlightAware Transoceanic
Tue 11:55:00 AM 42.8186 -139.2684 109° East 507 583 41,000  Level FlightAware Transoceanic
Tue 11:56:00 AM 42.7725 -139.0862 109° East 507 583 41,000  Level FlightAware Transoceanic
Tue 11:57:00 AM 42.7309 -138.9230 109° East 505 581 41,000  Level FlightAware Transoceanic
Tue 11:58:00 AM 42.7103 -138.8154 109° East 505 581 41,000  Level FlightAware Transoceanic
Tue 11:59:00 AM 42.6639 -138.6356 109° East 505 581 41,000  Level FlightAware Transoceanic
Tue 12:00:00 PM 42.6171 -138.4561 110° East 505 581 41,000  Level FlightAware Transoceanic
Tue 12:01:00 PM 42.5700 -138.2768 110° East 505 581 41,000  Level FlightAware Transoceanic
Tue 12:02:00 PM 42.5227 -138.0978 110° East 505 581 41,000  Level FlightAware Transoceanic
Tue 12:03:00 PM 42.4751 -137.9190 110° East 505 581 41,000  Level FlightAware Transoceanic
Tue 12:04:00 PM 42.4272 -137.7405 110° East 505 581 41,000  Level FlightAware Transoceanic
Tue 12:05:00 PM 42.3791 -137.5623 110° East 505 581 41,000  Level FlightAware Transoceanic
Tue 12:05:50 PM 42.3333 -137.4167 110° East 506 582 41,000  Level Oakland Oceanic (ODAPS)
Tue 12:06:00 PM 42.3306 -137.3844 110° East 505 581 41,000  Level FlightAware Transoceanic
Tue 12:07:00 PM 42.2819 -137.2068 110° East 505 581 41,000  Level FlightAware Transoceanic
Tue 12:08:00 PM 42.2329 -137.0294 111° Southeast 505 581 41,000  Level FlightAware Transoceanic
Tue 12:09:00 PM 42.1837 -136.8523 111° Southeast 505 581 41,000  Level FlightAware Transoceanic
Tue 12:10:00 PM 42.1341 -136.6755 111° Southeast 505 581 41,000  Level FlightAware Transoceanic
Tue 12:11:00 PM 42.0843 -136.4989 111° Southeast 505 581 41,000  Level FlightAware Transoceanic
Tue 12:12:00 PM 42.0368 -136.3503 111° Southeast 506 582 41,000  Level FlightAware Transoceanic
Tue 12:13:00 PM 41.9865 -136.1735 111° Southeast 506 582 41,000  Level FlightAware Transoceanic
Tue 12:14:00 PM 41.9358 -135.9970 111° Southeast 506 582 41,000  Level FlightAware Transoceanic
Tue 12:15:00 PM 41.8849 -135.8208 111° Southeast 506 582 41,000  Level FlightAware Transoceanic
Tue 12:16:00 PM 41.8338 -135.6449 111° Southeast 506 582 41,000  Level FlightAware Transoceanic
Tue 12:17:00 PM 41.7823 -135.4693 112° Southeast 506 582 41,000  Level FlightAware Transoceanic
Tue 12:18:00 PM 41.7306 -135.2939 112° Southeast 506 582 41,000  Level FlightAware Transoceanic
Tue 12:19:00 PM 41.6786 -135.1188 112° Southeast 506 582 41,000  Level FlightAware Transoceanic
Tue 12:19:42 PM 41.6500 -135.0000 112° Southeast 502 578 41,000  Level Oakland Oceanic (ODAPS)
Tue 12:20:00 PM 41.6264 -134.9440 112° Southeast 506 582 41,000  Level FlightAware Transoceanic
Tue 12:21:00 PM 41.5739 -134.7695 112° Southeast 506 582 41,000  Level FlightAware Transoceanic
Tue 12:22:00 PM 41.5211 -134.5953 112° Southeast 506 582 41,000  Level FlightAware Transoceanic
Tue 12:23:00 PM 41.4680 -134.4214 112° Southeast 506 582 41,000  Level FlightAware Transoceanic
Tue 12:24:00 PM 41.4147 -134.2477 112° Southeast 506 582 41,000  Level FlightAware Transoceanic
Tue 12:25:00 PM 41.3612 -134.0744 112° Southeast 506 582 41,000  Level FlightAware Transoceanic
Tue 12:26:00 PM 41.3265 -133.9451 113° Southeast 502 578 41,000  Level FlightAware Transoceanic
Tue 12:27:00 PM 41.2717 -133.7704 113° Southeast 502 578 41,000  Level FlightAware Transoceanic
Tue 12:28:00 PM 41.2166 -133.5959 113° Southeast 502 578 41,000  Level FlightAware Transoceanic
Tue 12:29:00 PM 41.1612 -133.4217 113° Southeast 502 578 41,000  Level FlightAware Transoceanic
Tue 12:30:00 PM 41.1056 -133.2478 113° Southeast 502 578 41,000  Level FlightAware Transoceanic
Tue 12:31:00 PM 41.0497 -133.0742 113° Southeast 502 578 41,000  Level FlightAware Transoceanic
Tue 12:32:00 PM 40.9935 -132.9009 113° Southeast 502 578 41,000  Level FlightAware Transoceanic
Tue 12:33:00 PM 40.9371 -132.7278 113° Southeast 502 578 41,000  Level FlightAware Transoceanic
Tue 12:33:34 PM 40.9167 -132.6667 113° Southeast 502 578 41,000  Level Oakland Oceanic (ODAPS)
Tue 12:34:00 PM 40.8804 -132.5551 114° Southeast 502 578 41,000  Level FlightAware Transoceanic
Tue 12:35:00 PM 40.8235 -132.3827 114° Southeast 502 578 41,000  Level FlightAware Transoceanic
Tue 12:36:00 PM 40.7663 -132.2106 114° Southeast 502 578 41,000  Level FlightAware Transoceanic
Tue 12:37:00 PM 40.7089 -132.0388 114° Southeast 502 578 41,000  Level FlightAware Transoceanic
Tue 12:38:00 PM 40.6512 -131.8672 114° Southeast 502 578 41,000  Level FlightAware Transoceanic
Tue 12:39:00 PM 40.5801 -131.6581 114° Southeast 502 578 41,000  Level FlightAware Transoceanic
Tue 12:40:00 PM 40.5232 -131.4910 114° Southeast 502 578 41,000  Level FlightAware Transoceanic
Tue 12:41:00 PM 40.4660 -131.3242 114° Southeast 502 578 41,000  Level FlightAware Transoceanic
Tue 12:42:00 PM 40.4086 -131.1577 114° Southeast 502 578 41,000  Level FlightAware Transoceanic
Tue 12:43:00 PM 40.3509 -130.9915 115° Southeast 502 578 41,000  Level FlightAware Transoceanic
Tue 12:44:00 PM 40.2930 -130.8255 115° Southeast 502 578 41,000  Level FlightAware Transoceanic
Tue 12:45:00 PM 40.2349 -130.6598 115° Southeast 502 578 41,000  Level FlightAware Transoceanic
Tue 12:46:00 PM 40.1765 -130.4944 115° Southeast 502 578 41,000  Level FlightAware Transoceanic
Tue 12:47:00 PM 40.1179 -130.3293 115° Southeast 502 578 41,000  Level FlightAware Transoceanic
Tue 12:47:26 PM 40.1333 -130.3667 115° Southeast 494 568 41,000  Level Oakland Oceanic (ODAPS)
Tue 12:48:00 PM 40.0591 -130.1645 115° Southeast 502 578 41,000  Level FlightAware Transoceanic
Tue 12:49:00 PM 40.0000 -130.0000 122° Southeast 502 578 41,000  Level FlightAware Transoceanic
Tue 12:49:48 PM 40.0000 -130.0000 122° Southeast 504 580 41,000  Level Oakland Oceanic (ODAPS)
Tue 12:50:00 PM 39.9252 -129.8469 123° Southeast 502 578 41,000  Level FlightAware Transoceanic
Tue 12:51:00 PM 39.8502 -129.6941 123° Southeast 502 578 41,000  Level FlightAware Transoceanic
Tue 12:52:00 PM 39.7750 -129.5416 123° Southeast 502 578 41,000  Level FlightAware Transoceanic
Tue 12:53:00 PM 39.7631 -129.5175 123° Southeast 494 568 41,000  Level FlightAware Transoceanic
Tue 12:54:00 PM 39.6837 -129.3575 123° Southeast 494 568 41,000  Level FlightAware Transoceanic
Tue 12:55:00 PM 39.6040 -129.1978 123° Southeast 494 568 41,000  Level FlightAware Transoceanic
Tue 12:56:00 PM 39.5242 -129.0384 123° Southeast 504 580 41,000  Level FlightAware Transoceanic
Tue 12:57:00 PM 39.4441 -128.8795 123° Southeast 504 580 41,000  Level FlightAware Transoceanic
Tue 12:58:00 PM 39.3638 -128.7208 123° Southeast 504 580 41,000  Level FlightAware Transoceanic
Tue 12:59:00 PM 39.2833 -128.5626 123° Southeast 504 580 41,000  Level FlightAware Transoceanic
Tue 01:00:00 PM 39.2026 -128.4047 123° Southeast 504 580 41,000  Level FlightAware Transoceanic
Tue 01:01:00 PM 39.1216 -128.2472 124° Southeast 504 580 41,000  Level FlightAware Transoceanic
Tue 01:01:14 PM 39.1167 -128.2500 123° Southeast 497 572 41,000  Level Oakland Oceanic (ODAPS)
Tue 01:02:00 PM 39.0405 -128.0900 124° Southeast 504 580 41,000  Level FlightAware Transoceanic
Tue 01:03:00 PM 38.9591 -127.9332 124° Southeast 504 580 41,000  Level FlightAware Transoceanic
Tue 01:04:00 PM 38.8776 -127.7768 124° Southeast 504 580 41,000  Level FlightAware Transoceanic
Tue 01:05:00 PM 38.7958 -127.6207 124° Southeast 504 580 41,000  Level FlightAware Transoceanic
Tue 01:06:00 PM 38.7138 -127.4650 124° Southeast 504 580 41,000  Level FlightAware Transoceanic
Tue 01:06:52 PM 38.6647 -127.4444 111° Southeast 499 574 41,000  Level Oakland Center
Tue 01:07:00 PM 38.6848 -127.4141 124° Southeast 497 572 41,000  Level FlightAware Transoceanic
Tue 01:07:54 PM 38.5858 -127.2981 125° Southeast 501 577 41,000  Level Oakland Center
Tue 01:08:00 PM 38.6123 -127.2758 124° Southeast 497 572 41,000  Level FlightAware Transoceanic
Tue 01:08:55 PM 38.5086 -127.1519 124° Southeast 499 574 41,000  Level Oakland Center
Tue 01:09:00 PM 38.5395 -127.1378 124° Southeast 497 572 41,000  Level FlightAware Transoceanic
Tue 01:10:00 PM 38.4667 -127.0000 111° Southeast 497 572 41,000  Level FlightAware Transoceanic
Tue 01:10:00 PM 38.4310 -126.9826 120° Southeast  Level Estimated
Tue 01:10:57 PM 38.3861 -126.8486 120° Southeast 488 562 41,000  Level Oakland Center
Tue 01:11:00 PM 38.4158 -126.8324 111° Southeast 497 572 41,000 -97 Level FlightAware Transoceanic
Tue 01:11:59 PM 38.3331 -126.6944 114° Southeast 481 554 40,900  Descending Oakland Center
Tue 01:12:00 PM 38.3646 -126.6650 111° Southeast 497 572 41,000  Climbing FlightAware Transoceanic
Tue 01:13:00 PM 38.2658 -126.5094 115° Southeast 479 551 40,900  Descending Oakland Center
Tue 01:14:01 PM 38.2086 -126.3528 115° Southeast 481 554 41,000 49 Climbing Oakland Center
Tue 01:15:03 PM 38.1517 -126.1964 115° Southeast 484 557 41,000  Level Oakland Center
Tue 01:16:04 PM 38.0942 -126.0414 115° Southeast 486 559 41,000  Level Oakland Center
Tue 01:17:05 PM 38.0369 -125.8869 115° Southeast 486 559 41,000  Level Oakland Center
Tue 01:18:07 PM 37.9806 -125.7339 115° Southeast 484 557 41,000  Level Oakland Center
Tue 01:19:08 PM 37.9247 -125.5822 115° Southeast 481 554 41,000  Level Oakland Center
Tue 01:20:09 PM 37.8686 -125.4303 115° Southeast 479 551 41,000 -49 Level Oakland Center
Tue 01:21:11 PM 37.7969 -125.2500 117° Southeast 479 551 40,900 -49 Descending Oakland Center
Tue 01:22:12 PM 37.7411 -125.0989 115° Southeast 477 549 40,900  Level Oakland Center
Tue 01:23:13 PM 37.6850 -124.9494 115° Southeast 475 547 40,900 49 Level Oakland Center
Tue 01:24:15 PM 37.6283 -124.8006 116° Southeast 473 544 41,000  Climbing Oakland Center
Tue 01:25:16 PM 37.5717 -124.6522 116° Southeast 472 543 40,900 -49 Descending Oakland Center
Tue 01:26:17 PM 37.5158 -124.5036 115° Southeast 472 543 40,900  Level Oakland Center
Tue 01:27:18 PM 37.4594 -124.3542 115° Southeast 472 543 40,900  Level Oakland Center
Tue 01:28:20 PM 37.4011 -124.2044 116° Southeast 476 548 40,900 49 Level Oakland Center
Tue 01:29:21 PM 37.3442 -124.0567 116° Southeast 474 545 41,000 49 Climbing Oakland Center
Tue 01:30:22 PM 37.2739 -123.8761 116° Southeast 479 551 41,000 -49 Level Oakland Center
Tue 01:31:24 PM 37.2156 -123.7289 116° Southeast 477 549 40,900  Descending Oakland Center
Tue 01:32:25 PM 37.1578 -123.5817 116° Southeast 475 547 41,000 16 Climbing Oakland Center
Tue 01:37:43 PM 36.8376 -122.7850 116° Southeast 478 550 41,000  Level FlightAware ADS-B
Tue 01:38:48 PM 36.7721 -122.6240 117° Southeast 486 559 41,000  Level FlightAware ADS-B
Tue 01:40:07 PM 36.6912 -122.4270 117° Southeast 488 562 41,000  Level FlightAware ADS-B
Tue 01:40:37 PM 36.6602 -122.3520 117° Southeast 484 557 41,000  Level FlightAware ADS-B
Tue 01:41:26 PM 36.6107 -122.2310 117° Southeast 484 557 41,000  Level FlightAware ADS-B
Tue 01:41:56 PM 36.5793 -122.1550 117° Southeast 486 559 41,000  Level FlightAware ADS-B
Tue 01:42:38 PM 36.5469 -122.0783 117° Southeast 484 557 41,000  Level Oakland Center
Tue 01:43:39 PM 36.4858 -121.9272 117° Southeast 488 562 41,000 -49 Level Oakland Center
Tue 01:44:41 PM 36.4139 -121.7581 118° Southeast 486 559 40,900  Descending Oakland Center
Tue 01:45:42 PM 36.3517 -121.6086 117° Southeast 487 560 41,000 49 Climbing Oakland Center
Tue 01:46:43 PM 36.2875 -121.4589 118° Southeast 491 565 41,000  Level Oakland Center
Tue 01:47:45 PM 36.2228 -121.3097 118° Southeast 492 566 41,000 -49 Level Oakland Center
Tue 01:48:46 PM 36.1586 -121.1625 118° Southeast 489 563 40,900  Descending Oakland Center
Tue 01:49:47 PM 36.0792 -121.0247 125° Southeast 493 567 41,000  Climbing Oakland Center
Tue 01:50:49 PM 35.9983 -120.8892 126° Southeast 491 565 40,900 -49 Descending Oakland Center
Tue 01:51:50 PM 35.9189 -120.7544 126° Southeast 488 562 40,900  Level Oakland Center
Tue 01:52:52 PM 35.8397 -120.6178 126° Southeast 489 563 40,900  Level Oakland Center
Tue 01:53:53 PM 35.7436 -120.4553 126° Southeast 488 562 40,900 49 Level Oakland Center
Tue 01:54:54 PM 35.6619 -120.3186 126° Southeast 489 563 41,000  Climbing Oakland Center
Tue 01:55:50 PM 35.5986 -120.2150 127° Southeast 485 558 40,900 -51 Descending Los Angeles Center
Tue 01:56:52 PM 35.4944 -120.0925 136° Southeast 493 567 40,900 -864 Level Los Angeles Center
Tue 01:57:55 PM 35.3914 -119.9806 138° Southeast 490 564 39,100 -2,208 Descending Los Angeles Center
Tue 01:58:57 PM 35.2689 -119.8472 138° Southeast 488 562 36,300 -2,758 Descending Los Angeles Center
Tue 01:59:59 PM 35.1653 -119.7364 139° Southeast 491 565 33,400 -2,613 Descending Los Angeles Center
Tue 02:01:01 PM 35.0625 -119.6253 138° Southeast 493 567 30,900 -2,226 Descending Los Angeles Center
Tue 02:02:03 PM 34.9608 -119.5169 139° Southeast 485 558 28,800 -2,081 Descending Los Angeles Center
Tue 02:03:05 PM 34.8644 -119.4133 139° Southeast 467 537 26,600 -2,129 Descending Los Angeles Center
Tue 02:04:07 PM 34.7708 -119.3144 139° Southeast 450 518 24,400 -2,274 Descending Los Angeles Center
Tue 02:05:09 PM 34.6631 -119.2000 139° Southeast 430 495 21,900 -2,160 Descending Los Angeles Center
Tue 02:06:12 PM 34.5708 -119.1072 140° Southeast 421 484 19,900 -1,968 Descending Los Angeles Center
Tue 02:07:14 PM 34.4867 -119.0175 139° Southeast 399 459 17,800 -1,984 Descending Los Angeles Center
Tue 02:08:16 PM 34.4044 -118.9306 139° Southeast 391 450 15,800 -1,935 Descending Los Angeles Center
Tue 02:09:18 PM 34.3156 -118.8653 149° Southeast 374 430 13,800 -1,742 Descending Los Angeles Center
Tue 02:10:20 PM 34.2161 -118.8317 164° South 370 426 12,200 -1,167 Descending Los Angeles Center
Tue 02:15:18 PM 34.0126 -118.4813 164° South 278 320 6,800 -1,203 Descending FlightAware ADS-B
Tue 02:16:39 PM 34.0167 -118.3667 164° South 261 300 4,600 -1,745 Descending Southern California TRACON
Tue 02:17:39 PM 34.0167 -118.2833 90° East 246 283 2,700 -1,169 Descending Southern California TRACON
Tue 02:18:37 PM 33.9789 -118.2933 192° South 202 232 2,300 -750 Descending Los Angeles Center
Tue 02:19:39 PM 33.9572 -118.3406 241° Southwest 177 204 1,200 -968 Descending Los Angeles Center
Tue 02:20:41 PM 33.9544 -118.3897 266° West 159 183 300 -871 Descending Los Angeles Center

Login

Don't have an account? Register now (free) for customized features, flight alerts, and more!